sensor_id;sensor_type;location;lat;lon;timestamp;P1;durP1;ratioP1;P2;durP2;ratioP2
70953;SDS011;58618;47.490;8.736;2023-09-12T00:02:28;19.60;;;15.65;;
70953;SDS011;58618;47.490;8.736;2023-09-12T00:05:16;19.02;;;14.48;;
70953;SDS011;58618;47.490;8.736;2023-09-12T00:08:03;20.57;;;15.83;;
70953;SDS011;58618;47.490;8.736;2023-09-12T00:11:01;23.77;;;16.38;;
70953;SDS011;58618;47.490;8.736;2023-09-12T00:13:50;20.02;;;15.15;;
70953;SDS011;58618;47.490;8.736;2023-09-12T00:16:38;20.15;;;15.60;;
70953;SDS011;58618;47.490;8.736;2023-09-12T00:19:25;20.08;;;15.80;;
70953;SDS011;58618;47.490;8.736;2023-09-12T00:22:12;23.97;;;16.23;;
70953;SDS011;58618;47.490;8.736;2023-09-12T00:25:00;23.30;;;16.83;;
70953;SDS011;58618;47.490;8.736;2023-09-12T00:27:47;19.27;;;15.15;;
70953;SDS011;58618;47.490;8.736;2023-09-12T00:30:36;23.10;;;16.35;;
70953;SDS011;58618;47.490;8.736;2023-09-12T00:33:23;19.33;;;14.98;;
70953;SDS011;58618;47.490;8.736;2023-09-12T00:36:11;21.27;;;15.80;;
70953;SDS011;58618;47.490;8.736;2023-09-12T00:38:58;21.73;;;16.55;;
70953;SDS011;58618;47.490;8.736;2023-09-12T00:41:45;20.92;;;15.85;;
70953;SDS011;58618;47.490;8.736;2023-09-12T00:44:33;20.95;;;16.42;;
70953;SDS011;58618;47.490;8.736;2023-09-12T00:47:21;21.77;;;15.77;;
70953;SDS011;58618;47.490;8.736;2023-09-12T00:50:10;21.37;;;15.20;;
70953;SDS011;58618;47.490;8.736;2023-09-12T00:53:00;20.88;;;15.80;;
70953;SDS011;58618;47.490;8.736;2023-09-12T00:55:50;19.95;;;14.95;;
70953;SDS011;58618;47.490;8.736;2023-09-12T00:58:42;21.63;;;15.40;;
70953;SDS011;58618;47.490;8.736;2023-09-12T01:01:29;21.48;;;15.75;;
70953;SDS011;58618;47.490;8.736;2023-09-12T01:04:20;23.37;;;15.33;;
70953;SDS011;58618;47.490;8.736;2023-09-12T01:07:07;19.02;;;15.90;;
70953;SDS011;58618;47.490;8.736;2023-09-12T01:09:55;18.90;;;14.88;;
70953;SDS011;58618;47.490;8.736;2023-09-12T01:12:42;21.15;;;15.70;;
70953;SDS011;58618;47.490;8.736;2023-09-12T01:15:30;20.05;;;15.88;;
70953;SDS011;58618;47.490;8.736;2023-09-12T01:18:17;19.33;;;15.77;;
70953;SDS011;58618;47.490;8.736;2023-09-12T01:21:10;22.25;;;15.85;;
70953;SDS011;58618;47.490;8.736;2023-09-12T01:27:33;21.98;;;15.60;;
70953;SDS011;58618;47.490;8.736;2023-09-12T01:30:23;19.35;;;15.02;;
70953;SDS011;58618;47.490;8.736;2023-09-12T01:33:12;23.93;;;16.20;;
70953;SDS011;58618;47.490;8.736;2023-09-12T01:35:59;23.70;;;15.50;;
70953;SDS011;58618;47.490;8.736;2023-09-12T01:38:47;19.45;;;15.70;;
70953;SDS011;58618;47.490;8.736;2023-09-12T01:41:34;20.48;;;15.30;;
70953;SDS011;58618;47.490;8.736;2023-09-12T01:44:25;22.67;;;16.65;;
70953;SDS011;58618;47.490;8.736;2023-09-12T01:47:15;21.87;;;15.93;;
70953;SDS011;58618;47.490;8.736;2023-09-12T01:50:04;23.35;;;17.58;;
70953;SDS011;58618;47.490;8.736;2023-09-12T01:52:55;21.27;;;16.00;;
70953;SDS011;58618;47.490;8.736;2023-09-12T01:55:43;24.83;;;18.17;;
70953;SDS011;58618;47.490;8.736;2023-09-12T01:58:32;22.30;;;16.95;;
70953;SDS011;58618;47.490;8.736;2023-09-12T02:01:22;23.17;;;17.10;;
70953;SDS011;58618;47.490;8.736;2023-09-12T02:04:12;22.13;;;17.13;;
70953;SDS011;58618;47.490;8.736;2023-09-12T02:07:00;21.65;;;16.52;;
70953;SDS011;58618;47.490;8.736;2023-09-12T02:09:47;20.90;;;15.43;;
70953;SDS011;58618;47.490;8.736;2023-09-12T02:12:34;20.90;;;16.50;;
70953;SDS011;58618;47.490;8.736;2023-09-12T02:15:22;26.20;;;17.40;;
70953;SDS011;58618;47.490;8.736;2023-09-12T02:18:11;23.80;;;16.83;;
70953;SDS011;58618;47.490;8.736;2023-09-12T02:20:58;20.05;;;15.43;;
70953;SDS011;58618;47.490;8.736;2023-09-12T02:23:46;21.90;;;15.68;;
70953;SDS011;58618;47.490;8.736;2023-09-12T02:26:33;22.65;;;17.00;;
70953;SDS011;58618;47.490;8.736;2023-09-12T02:29:22;20.67;;;16.90;;
70953;SDS011;58618;47.490;8.736;2023-09-12T02:32:09;22.80;;;16.60;;
70953;SDS011;58618;47.490;8.736;2023-09-12T02:34:58;24.27;;;17.17;;
70953;SDS011;58618;47.490;8.736;2023-09-12T02:37:45;21.50;;;16.33;;
70953;SDS011;58618;47.490;8.736;2023-09-12T02:40:33;21.58;;;15.88;;
70953;SDS011;58618;47.490;8.736;2023-09-12T02:43:20;21.33;;;15.13;;
70953;SDS011;58618;47.490;8.736;2023-09-12T02:46:07;24.90;;;15.45;;
70953;SDS011;58618;47.490;8.736;2023-09-12T02:48:54;22.52;;;16.08;;
70953;SDS011;58618;47.490;8.736;2023-09-12T02:51:44;19.13;;;15.40;;
70953;SDS011;58618;47.490;8.736;2023-09-12T02:54:32;21.52;;;15.73;;
70953;SDS011;58618;47.490;8.736;2023-09-12T02:57:19;20.40;;;16.10;;
70953;SDS011;58618;47.490;8.736;2023-09-12T03:00:07;23.10;;;15.98;;
70953;SDS011;58618;47.490;8.736;2023-09-12T03:02:55;19.20;;;15.20;;
70953;SDS011;58618;47.490;8.736;2023-09-12T03:05:42;23.25;;;17.55;;
70953;SDS011;58618;47.490;8.736;2023-09-12T03:08:31;20.33;;;16.38;;
70953;SDS011;58618;47.490;8.736;2023-09-12T03:11:18;24.57;;;15.80;;
70953;SDS011;58618;47.490;8.736;2023-09-12T03:14:06;22.27;;;15.93;;
70953;SDS011;58618;47.490;8.736;2023-09-12T03:16:53;20.95;;;16.48;;
70953;SDS011;58618;47.490;8.736;2023-09-12T03:19:41;23.25;;;16.85;;
70953;SDS011;58618;47.490;8.736;2023-09-12T03:22:29;20.00;;;15.18;;
70953;SDS011;58618;47.490;8.736;2023-09-12T03:25:19;21.30;;;16.20;;
70953;SDS011;58618;47.490;8.736;2023-09-12T03:28:07;19.90;;;15.98;;
70953;SDS011;58618;47.490;8.736;2023-09-12T03:31:02;23.83;;;16.63;;
70953;SDS011;58618;47.490;8.736;2023-09-12T03:33:50;24.10;;;17.38;;
70953;SDS011;58618;47.490;8.736;2023-09-12T03:36:37;20.92;;;15.75;;
70953;SDS011;58618;47.490;8.736;2023-09-12T03:39:25;22.57;;;16.07;;
70953;SDS011;58618;47.490;8.736;2023-09-12T03:42:13;21.42;;;15.82;;
70953;SDS011;58618;47.490;8.736;2023-09-12T03:45:01;22.33;;;16.65;;
70953;SDS011;58618;47.490;8.736;2023-09-12T03:47:48;23.15;;;16.23;;
70953;SDS011;58618;47.490;8.736;2023-09-12T03:50:35;21.70;;;15.82;;
70953;SDS011;58618;47.490;8.736;2023-09-12T03:53:23;20.33;;;15.37;;
70953;SDS011;58618;47.490;8.736;2023-09-12T03:56:12;22.60;;;15.90;;
70953;SDS011;58618;47.490;8.736;2023-09-12T03:59:01;25.23;;;16.27;;
70953;SDS011;58618;47.490;8.736;2023-09-12T04:01:49;20.52;;;15.38;;
70953;SDS011;58618;47.490;8.736;2023-09-12T04:04:36;19.40;;;15.05;;
70953;SDS011;58618;47.490;8.736;2023-09-12T04:07:23;22.70;;;15.70;;
70953;SDS011;58618;47.490;8.736;2023-09-12T04:10:11;19.15;;;15.93;;
70953;SDS011;58618;47.490;8.736;2023-09-12T04:12:58;20.63;;;15.35;;
70953;SDS011;58618;47.490;8.736;2023-09-12T04:15:47;23.65;;;15.45;;
70953;SDS011;58618;47.490;8.736;2023-09-12T04:18:34;22.52;;;16.23;;
70953;SDS011;58618;47.490;8.736;2023-09-12T04:21:21;22.23;;;16.03;;
70953;SDS011;58618;47.490;8.736;2023-09-12T04:24:09;23.13;;;16.85;;
70953;SDS011;58618;47.490;8.736;2023-09-12T04:26:56;19.75;;;15.65;;
70953;SDS011;58618;47.490;8.736;2023-09-12T04:29:44;22.88;;;16.02;;
70953;SDS011;58618;47.490;8.736;2023-09-12T04:32:32;19.60;;;15.13;;
70953;SDS011;58618;47.490;8.736;2023-09-12T04:35:20;21.30;;;15.57;;
70953;SDS011;58618;47.490;8.736;2023-09-12T04:38:08;24.17;;;16.08;;
70953;SDS011;58618;47.490;8.736;2023-09-12T04:40:55;22.52;;;15.10;;
70953;SDS011;58618;47.490;8.736;2023-09-12T04:43:43;20.23;;;15.25;;
70953;SDS011;58618;47.490;8.736;2023-09-12T04:46:31;19.52;;;14.63;;
70953;SDS011;58618;47.490;8.736;2023-09-12T04:49:20;22.23;;;16.60;;
70953;SDS011;58618;47.490;8.736;2023-09-12T04:52:08;20.63;;;15.70;;
70953;SDS011;58618;47.490;8.736;2023-09-12T04:54:55;23.00;;;16.27;;
70953;SDS011;58618;47.490;8.736;2023-09-12T04:57:42;21.08;;;15.93;;
70953;SDS011;58618;47.490;8.736;2023-09-12T05:00:30;20.58;;;15.77;;
70953;SDS011;58618;47.490;8.736;2023-09-12T05:03:18;18.70;;;15.13;;
70953;SDS011;58618;47.490;8.736;2023-09-12T05:06:06;19.65;;;15.02;;
70953;SDS011;58618;47.490;8.736;2023-09-12T05:08:54;21.10;;;14.52;;
70953;SDS011;58618;47.490;8.736;2023-09-12T05:11:41;21.80;;;14.57;;
70953;SDS011;58618;47.490;8.736;2023-09-12T05:14:28;20.15;;;15.00;;
70953;SDS011;58618;47.490;8.736;2023-09-12T05:17:15;21.57;;;15.80;;
70953;SDS011;58618;47.490;8.736;2023-09-12T05:20:03;23.08;;;17.10;;
70953;SDS011;58618;47.490;8.736;2023-09-12T05:22:53;21.20;;;15.63;;
70953;SDS011;58618;47.490;8.736;2023-09-12T05:25:40;20.95;;;14.80;;
70953;SDS011;58618;47.490;8.736;2023-09-12T05:28:27;20.38;;;15.90;;
70953;SDS011;58618;47.490;8.736;2023-09-12T05:31:14;17.63;;;14.47;;
70953;SDS011;58618;47.490;8.736;2023-09-12T05:34:02;20.63;;;15.52;;
70953;SDS011;58618;47.490;8.736;2023-09-12T05:36:49;22.48;;;16.27;;
70953;SDS011;58618;47.490;8.736;2023-09-12T05:39:38;19.02;;;14.98;;
70953;SDS011;58618;47.490;8.736;2023-09-12T05:42:25;20.05;;;13.88;;
70953;SDS011;58618;47.490;8.736;2023-09-12T05:45:12;18.73;;;14.47;;
70953;SDS011;58618;47.490;8.736;2023-09-12T05:48:00;18.55;;;14.23;;
70953;SDS011;58618;47.490;8.736;2023-09-12T05:50:49;17.27;;;13.35;;
70953;SDS011;58618;47.490;8.736;2023-09-12T05:53:36;17.52;;;12.73;;
70953;SDS011;58618;47.490;8.736;2023-09-12T05:56:25;19.42;;;13.65;;
70953;SDS011;58618;47.490;8.736;2023-09-12T05:59:12;16.47;;;12.33;;
70953;SDS011;58618;47.490;8.736;2023-09-12T06:01:59;18.92;;;13.18;;
70953;SDS011;58618;47.490;8.736;2023-09-12T06:04:46;14.85;;;12.25;;
70953;SDS011;58618;47.490;8.736;2023-09-12T06:07:34;15.15;;;12.60;;
70953;SDS011;58618;47.490;8.736;2023-09-12T06:10:22;15.13;;;12.25;;
70953;SDS011;58618;47.490;8.736;2023-09-12T06:13:10;16.57;;;12.23;;
70953;SDS011;58618;47.490;8.736;2023-09-12T06:15:58;16.38;;;12.02;;
70953;SDS011;58618;47.490;8.736;2023-09-12T06:18:46;14.73;;;12.18;;
70953;SDS011;58618;47.490;8.736;2023-09-12T06:21:34;15.77;;;12.30;;
70953;SDS011;58618;47.490;8.736;2023-09-12T06:24:21;14.55;;;11.73;;
70953;SDS011;58618;47.490;8.736;2023-09-12T06:27:09;13.80;;;11.17;;
70953;SDS011;58618;47.490;8.736;2023-09-12T06:29:59;16.40;;;11.10;;
70953;SDS011;58618;47.490;8.736;2023-09-12T06:32:46;16.05;;;11.07;;
70953;SDS011;58618;47.490;8.736;2023-09-12T06:35:34;17.17;;;11.05;;
70953;SDS011;58618;47.490;8.736;2023-09-12T06:38:22;14.73;;;10.82;;
70953;SDS011;58618;47.490;8.736;2023-09-12T06:41:10;11.43;;;10.20;;
70953;SDS011;58618;47.490;8.736;2023-09-12T06:43:57;13.65;;;10.80;;
70953;SDS011;58618;47.490;8.736;2023-09-12T06:46:46;15.73;;;11.43;;
70953;SDS011;58618;47.490;8.736;2023-09-12T06:49:33;16.15;;;11.57;;
70953;SDS011;58618;47.490;8.736;2023-09-12T06:52:22;17.45;;;11.65;;
70953;SDS011;58618;47.490;8.736;2023-09-12T06:55:09;12.93;;;9.97;;
70953;SDS011;58618;47.490;8.736;2023-09-12T06:57:56;12.60;;;10.90;;
70953;SDS011;58618;47.490;8.736;2023-09-12T07:00:43;12.57;;;10.27;;
70953;SDS011;58618;47.490;8.736;2023-09-12T07:03:32;14.02;;;11.18;;
70953;SDS011;58618;47.490;8.736;2023-09-12T07:06:19;16.25;;;10.25;;
70953;SDS011;58618;47.490;8.736;2023-09-12T07:09:07;13.97;;;10.13;;
70953;SDS011;58618;47.490;8.736;2023-09-12T07:11:54;11.98;;;9.93;;
70953;SDS011;58618;47.490;8.736;2023-09-12T07:14:41;11.70;;;10.23;;
70953;SDS011;58618;47.490;8.736;2023-09-12T07:17:29;11.80;;;10.10;;
70953;SDS011;58618;47.490;8.736;2023-09-12T07:20:18;12.07;;;10.05;;
70953;SDS011;58618;47.490;8.736;2023-09-12T07:23:06;11.50;;;9.30;;
70953;SDS011;58618;47.490;8.736;2023-09-12T07:25:53;12.02;;;9.68;;
70953;SDS011;58618;47.490;8.736;2023-09-12T07:28:43;11.40;;;9.50;;
70953;SDS011;58618;47.490;8.736;2023-09-12T07:31:30;12.15;;;9.60;;
70953;SDS011;58618;47.490;8.736;2023-09-12T07:34:18;11.75;;;9.93;;
70953;SDS011;58618;47.490;8.736;2023-09-12T07:37:06;11.90;;;9.83;;
70953;SDS011;58618;47.490;8.736;2023-09-12T07:39:54;10.93;;;9.55;;
70953;SDS011;58618;47.490;8.736;2023-09-12T07:42:41;12.88;;;8.82;;
70953;SDS011;58618;47.490;8.736;2023-09-12T07:45:29;10.43;;;8.60;;
70953;SDS011;58618;47.490;8.736;2023-09-12T07:48:17;11.73;;;9.30;;
70953;SDS011;58618;47.490;8.736;2023-09-12T07:51:10;11.87;;;8.87;;
70953;SDS011;58618;47.490;8.736;2023-09-12T07:54:00;10.80;;;9.15;;
70953;SDS011;58618;47.490;8.736;2023-09-12T07:56:47;11.30;;;9.02;;
70953;SDS011;58618;47.490;8.736;2023-09-12T07:59:34;11.55;;;8.82;;
70953;SDS011;58618;47.490;8.736;2023-09-12T08:02:22;10.95;;;9.38;;
70953;SDS011;58618;47.490;8.736;2023-09-12T08:05:09;12.50;;;8.70;;
70953;SDS011;58618;47.490;8.736;2023-09-12T08:07:56;10.00;;;8.30;;
70953;SDS011;58618;47.490;8.736;2023-09-12T08:10:45;15.90;;;8.85;;
70953;SDS011;58618;47.490;8.736;2023-09-12T08:13:32;11.15;;;9.00;;
70953;SDS011;58618;47.490;8.736;2023-09-12T08:16:20;9.45;;;8.45;;
70953;SDS011;58618;47.490;8.736;2023-09-12T08:19:07;10.90;;;7.73;;
70953;SDS011;58618;47.490;8.736;2023-09-12T08:21:54;12.05;;;9.35;;
70953;SDS011;58618;47.490;8.736;2023-09-12T08:24:41;10.25;;;8.80;;
70953;SDS011;58618;47.490;8.736;2023-09-12T08:27:30;10.95;;;8.43;;
70953;SDS011;58618;47.490;8.736;2023-09-12T08:30:18;10.10;;;8.88;;
70953;SDS011;58618;47.490;8.736;2023-09-12T08:33:05;12.57;;;8.33;;
70953;SDS011;58618;47.490;8.736;2023-09-12T08:35:52;12.05;;;8.43;;
70953;SDS011;58618;47.490;8.736;2023-09-12T08:38:40;10.60;;;8.60;;
70953;SDS011;58618;47.490;8.736;2023-09-12T08:41:27;11.07;;;9.45;;
70953;SDS011;58618;47.490;8.736;2023-09-12T08:44:15;9.52;;;8.45;;
70953;SDS011;58618;47.490;8.736;2023-09-12T08:47:03;10.73;;;8.57;;
70953;SDS011;58618;47.490;8.736;2023-09-12T08:49:53;11.32;;;8.30;;
70953;SDS011;58618;47.490;8.736;2023-09-12T08:52:41;11.32;;;9.23;;
70953;SDS011;58618;47.490;8.736;2023-09-12T08:55:31;16.17;;;9.60;;
70953;SDS011;58618;47.490;8.736;2023-09-12T08:58:19;16.95;;;9.80;;
70953;SDS011;58618;47.490;8.736;2023-09-12T09:01:10;14.73;;;9.57;;
70953;SDS011;58618;47.490;8.736;2023-09-12T09:04:01;11.43;;;9.48;;
70953;SDS011;58618;47.490;8.736;2023-09-12T09:06:49;10.18;;;8.90;;
70953;SDS011;58618;47.490;8.736;2023-09-12T09:09:38;12.10;;;9.50;;
70953;SDS011;58618;47.490;8.736;2023-09-12T09:12:26;16.30;;;10.07;;
70953;SDS011;58618;47.490;8.736;2023-09-12T09:15:20;16.00;;;9.17;;
70953;SDS011;58618;47.490;8.736;2023-09-12T09:18:09;14.25;;;9.32;;
70953;SDS011;58618;47.490;8.736;2023-09-12T09:20:57;11.75;;;8.52;;
70953;SDS011;58618;47.490;8.736;2023-09-12T09:23:45;12.57;;;9.65;;
70953;SDS011;58618;47.490;8.736;2023-09-12T09:26:43;12.80;;;9.55;;
70953;SDS011;58618;47.490;8.736;2023-09-12T09:29:31;12.33;;;9.60;;
70953;SDS011;58618;47.490;8.736;2023-09-12T09:32:19;12.38;;;10.00;;
70953;SDS011;58618;47.490;8.736;2023-09-12T09:35:09;11.70;;;9.02;;
70953;SDS011;58618;47.490;8.736;2023-09-12T09:37:56;10.25;;;9.25;;
70953;SDS011;58618;47.490;8.736;2023-09-12T09:40:44;10.98;;;9.25;;
70953;SDS011;58618;47.490;8.736;2023-09-12T09:43:31;10.83;;;9.40;;
70953;SDS011;58618;47.490;8.736;2023-09-12T09:46:19;12.52;;;9.35;;
70953;SDS011;58618;47.490;8.736;2023-09-12T09:49:09;13.43;;;8.23;;
70953;SDS011;58618;47.490;8.736;2023-09-12T09:51:58;10.82;;;8.60;;
70953;SDS011;58618;47.490;8.736;2023-09-12T09:54:45;9.90;;;7.95;;
70953;SDS011;58618;47.490;8.736;2023-09-12T09:57:36;10.37;;;8.13;;
70953;SDS011;58618;47.490;8.736;2023-09-12T10:00:23;12.13;;;8.52;;
70953;SDS011;58618;47.490;8.736;2023-09-12T10:03:13;10.35;;;7.95;;
70953;SDS011;58618;47.490;8.736;2023-09-12T10:06:05;10.13;;;8.00;;
70953;SDS011;58618;47.490;8.736;2023-09-12T10:08:56;28.50;;;24.38;;
70953;SDS011;58618;47.490;8.736;2023-09-12T10:11:46;9.87;;;7.93;;
70953;SDS011;58618;47.490;8.736;2023-09-12T10:14:34;16.30;;;10.98;;
70953;SDS011;58618;47.490;8.736;2023-09-12T10:17:30;12.10;;;7.75;;
70953;SDS011;58618;47.490;8.736;2023-09-12T10:20:23;10.30;;;7.93;;
70953;SDS011;58618;47.490;8.736;2023-09-12T10:23:14;13.32;;;7.53;;
70953;SDS011;58618;47.490;8.736;2023-09-12T10:26:10;11.50;;;8.13;;
70953;SDS011;58618;47.490;8.736;2023-09-12T10:28:58;10.57;;;8.05;;
70953;SDS011;58618;47.490;8.736;2023-09-12T10:31:46;9.80;;;8.43;;
70953;SDS011;58618;47.490;8.736;2023-09-12T10:34:34;9.13;;;7.60;;
70953;SDS011;58618;47.490;8.736;2023-09-12T10:37:23;10.35;;;8.07;;
70953;SDS011;58618;47.490;8.736;2023-09-12T10:40:12;12.20;;;8.47;;
70953;SDS011;58618;47.490;8.736;2023-09-12T10:43:03;10.00;;;8.52;;
70953;SDS011;58618;47.490;8.736;2023-09-12T10:45:51;11.38;;;8.48;;
70953;SDS011;58618;47.490;8.736;2023-09-12T10:48:39;11.98;;;9.25;;
70953;SDS011;58618;47.490;8.736;2023-09-12T10:51:27;10.38;;;8.88;;
70953;SDS011;58618;47.490;8.736;2023-09-12T10:54:15;12.67;;;9.37;;
70953;SDS011;58618;47.490;8.736;2023-09-12T10:57:03;13.25;;;9.25;;
70953;SDS011;58618;47.490;8.736;2023-09-12T11:00:11;13.52;;;9.55;;
70953;SDS011;58618;47.490;8.736;2023-09-12T11:03:00;13.18;;;9.18;;
70953;SDS011;58618;47.490;8.736;2023-09-12T11:06:28;12.02;;;8.68;;
70953;SDS011;58618;47.490;8.736;2023-09-12T11:09:17;11.13;;;8.23;;
70953;SDS011;58618;47.490;8.736;2023-09-12T11:12:07;11.13;;;8.75;;
70953;SDS011;58618;47.490;8.736;2023-09-12T11:15:24;14.77;;;8.55;;
70953;SDS011;58618;47.490;8.736;2023-09-12T11:18:12;12.50;;;9.38;;
70953;SDS011;58618;47.490;8.736;2023-09-12T11:21:00;12.55;;;9.00;;
70953;SDS011;58618;47.490;8.736;2023-09-12T11:23:53;10.93;;;8.70;;
70953;SDS011;58618;47.490;8.736;2023-09-12T11:26:53;11.18;;;8.55;;
70953;SDS011;58618;47.490;8.736;2023-09-12T11:29:42;10.98;;;8.10;;
70953;SDS011;58618;47.490;8.736;2023-09-12T11:32:31;10.85;;;8.40;;
70953;SDS011;58618;47.490;8.736;2023-09-12T11:35:22;10.15;;;8.32;;
70953;SDS011;58618;47.490;8.736;2023-09-12T11:38:10;13.33;;;8.57;;
70953;SDS011;58618;47.490;8.736;2023-09-12T11:40:58;11.57;;;8.55;;
70953;SDS011;58618;47.490;8.736;2023-09-12T11:43:46;11.18;;;8.65;;
70953;SDS011;58618;47.490;8.736;2023-09-12T11:46:34;12.30;;;8.63;;
70953;SDS011;58618;47.490;8.736;2023-09-12T11:49:24;9.43;;;8.35;;
70953;SDS011;58618;47.490;8.736;2023-09-12T11:52:12;10.60;;;8.67;;
70953;SDS011;58618;47.490;8.736;2023-09-12T11:55:02;10.77;;;8.50;;
70953;SDS011;58618;47.490;8.736;2023-09-12T11:57:50;10.93;;;8.40;;
70953;SDS011;58618;47.490;8.736;2023-09-12T12:00:37;11.18;;;8.00;;
70953;SDS011;58618;47.490;8.736;2023-09-12T12:03:29;11.48;;;8.00;;
70953;SDS011;58618;47.490;8.736;2023-09-12T12:06:18;11.00;;;8.60;;
70953;SDS011;58618;47.490;8.736;2023-09-12T12:09:05;9.32;;;8.27;;
70953;SDS011;58618;47.490;8.736;2023-09-12T12:11:53;14.07;;;8.25;;
70953;SDS011;58618;47.490;8.736;2023-09-12T12:14:41;8.90;;;7.97;;
70953;SDS011;58618;47.490;8.736;2023-09-12T12:17:30;9.50;;;7.97;;
70953;SDS011;58618;47.490;8.736;2023-09-12T12:20:18;10.10;;;8.10;;
70953;SDS011;58618;47.490;8.736;2023-09-12T12:23:06;12.25;;;7.55;;
70953;SDS011;58618;47.490;8.736;2023-09-12T12:25:54;10.13;;;8.18;;
70953;SDS011;58618;47.490;8.736;2023-09-12T12:28:41;9.85;;;7.82;;
70953;SDS011;58618;47.490;8.736;2023-09-12T12:31:28;9.32;;;7.88;;
70953;SDS011;58618;47.490;8.736;2023-09-12T12:34:16;9.57;;;7.80;;
70953;SDS011;58618;47.490;8.736;2023-09-12T12:37:09;10.98;;;7.65;;
70953;SDS011;58618;47.490;8.736;2023-09-12T12:39:59;12.05;;;7.88;;
70953;SDS011;58618;47.490;8.736;2023-09-12T12:42:48;8.48;;;7.50;;
70953;SDS011;58618;47.490;8.736;2023-09-12T12:45:36;8.88;;;7.78;;
70953;SDS011;58618;47.490;8.736;2023-09-12T12:48:29;10.33;;;7.77;;
70953;SDS011;58618;47.490;8.736;2023-09-12T12:51:18;10.05;;;7.30;;
70953;SDS011;58618;47.490;8.736;2023-09-12T12:54:08;8.07;;;6.93;;
70953;SDS011;58618;47.490;8.736;2023-09-12T12:56:56;8.93;;;7.55;;
70953;SDS011;58618;47.490;8.736;2023-09-12T12:59:44;10.57;;;7.15;;
70953;SDS011;58618;47.490;8.736;2023-09-12T13:02:32;10.63;;;7.17;;
70953;SDS011;58618;47.490;8.736;2023-09-12T13:05:20;8.93;;;7.50;;
70953;SDS011;58618;47.490;8.736;2023-09-12T13:08:08;8.95;;;7.40;;
70953;SDS011;58618;47.490;8.736;2023-09-12T13:10:55;9.05;;;7.32;;
70953;SDS011;58618;47.490;8.736;2023-09-12T13:13:44;8.77;;;7.70;;
70953;SDS011;58618;47.490;8.736;2023-09-12T13:16:33;11.87;;;7.63;;
70953;SDS011;58618;47.490;8.736;2023-09-12T13:19:21;11.30;;;7.65;;
70953;SDS011;58618;47.490;8.736;2023-09-12T13:22:08;8.77;;;7.38;;
70953;SDS011;58618;47.490;8.736;2023-09-12T13:24:55;10.60;;;7.38;;
70953;SDS011;58618;47.490;8.736;2023-09-12T13:27:43;10.85;;;7.88;;
70953;SDS011;58618;47.490;8.736;2023-09-12T13:30:31;9.17;;;7.30;;
70953;SDS011;58618;47.490;8.736;2023-09-12T13:33:19;9.25;;;7.72;;
70953;SDS011;58618;47.490;8.736;2023-09-12T13:36:06;11.65;;;8.20;;
70953;SDS011;58618;47.490;8.736;2023-09-12T13:38:54;12.80;;;7.80;;
70953;SDS011;58618;47.490;8.736;2023-09-12T13:41:42;11.25;;;7.72;;
70953;SDS011;58618;47.490;8.736;2023-09-12T13:44:30;13.10;;;8.10;;
70953;SDS011;58618;47.490;8.736;2023-09-12T13:47:19;9.65;;;8.40;;
70953;SDS011;58618;47.490;8.736;2023-09-12T13:50:08;12.35;;;8.45;;
70953;SDS011;58618;47.490;8.736;2023-09-12T13:52:57;10.20;;;7.72;;
70953;SDS011;58618;47.490;8.736;2023-09-12T13:55:45;11.77;;;7.80;;
70953;SDS011;58618;47.490;8.736;2023-09-12T13:58:33;10.17;;;8.17;;
70953;SDS011;58618;47.490;8.736;2023-09-12T14:01:20;10.27;;;8.48;;
70953;SDS011;58618;47.490;8.736;2023-09-12T14:04:10;10.10;;;8.77;;
70953;SDS011;58618;47.490;8.736;2023-09-12T14:06:57;10.88;;;8.75;;
70953;SDS011;58618;47.490;8.736;2023-09-12T14:09:44;11.52;;;8.68;;
70953;SDS011;58618;47.490;8.736;2023-09-12T14:12:32;9.97;;;8.37;;
70953;SDS011;58618;47.490;8.736;2023-09-12T14:15:21;11.18;;;8.90;;
70953;SDS011;58618;47.490;8.736;2023-09-12T14:18:08;13.57;;;9.25;;
70953;SDS011;58618;47.490;8.736;2023-09-12T14:20:57;9.48;;;8.00;;
70953;SDS011;58618;47.490;8.736;2023-09-12T14:23:45;11.55;;;8.73;;
70953;SDS011;58618;47.490;8.736;2023-09-12T14:26:32;10.57;;;8.70;;
70953;SDS011;58618;47.490;8.736;2023-09-12T14:29:19;14.02;;;7.90;;
70953;SDS011;58618;47.490;8.736;2023-09-12T14:32:07;14.82;;;7.35;;
70953;SDS011;58618;47.490;8.736;2023-09-12T14:34:54;12.18;;;6.65;;
70953;SDS011;58618;47.490;8.736;2023-09-12T14:37:44;8.02;;;5.22;;
70953;SDS011;58618;47.490;8.736;2023-09-12T14:40:34;8.17;;;5.37;;
70953;SDS011;58618;47.490;8.736;2023-09-12T14:43:21;7.93;;;4.00;;
70953;SDS011;58618;47.490;8.736;2023-09-12T14:46:09;5.68;;;3.20;;
70953;SDS011;58618;47.490;8.736;2023-09-12T14:48:56;4.45;;;3.08;;
70953;SDS011;58618;47.490;8.736;2023-09-12T14:51:44;6.00;;;2.88;;
70953;SDS011;58618;47.490;8.736;2023-09-12T14:54:33;6.47;;;2.63;;
70953;SDS011;58618;47.490;8.736;2023-09-12T14:57:20;5.10;;;2.70;;
70953;SDS011;58618;47.490;8.736;2023-09-12T15:00:09;6.95;;;2.28;;
70953;SDS011;58618;47.490;8.736;2023-09-12T15:02:57;3.83;;;2.45;;
70953;SDS011;58618;47.490;8.736;2023-09-12T15:05:46;4.30;;;2.33;;
70953;SDS011;58618;47.490;8.736;2023-09-12T15:08:34;3.50;;;1.97;;
70953;SDS011;58618;47.490;8.736;2023-09-12T15:11:23;6.72;;;2.15;;
70953;SDS011;58618;47.490;8.736;2023-09-12T15:14:11;3.08;;;1.70;;
70953;SDS011;58618;47.490;8.736;2023-09-12T15:16:58;6.53;;;2.15;;
70953;SDS011;58618;47.490;8.736;2023-09-12T15:19:46;4.00;;;1.95;;
70953;SDS011;58618;47.490;8.736;2023-09-12T15:22:33;6.90;;;1.70;;
70953;SDS011;58618;47.490;8.736;2023-09-12T15:25:22;2.78;;;1.67;;
70953;SDS011;58618;47.490;8.736;2023-09-12T15:28:11;3.05;;;1.73;;
70953;SDS011;58618;47.490;8.736;2023-09-12T15:30:58;3.97;;;1.80;;
70953;SDS011;58618;47.490;8.736;2023-09-12T15:33:48;2.65;;;1.73;;
70953;SDS011;58618;47.490;8.736;2023-09-12T15:36:39;4.47;;;1.60;;
70953;SDS011;58618;47.490;8.736;2023-09-12T15:39:28;3.63;;;1.60;;
70953;SDS011;58618;47.490;8.736;2023-09-12T15:42:15;3.80;;;1.38;;
70953;SDS011;58618;47.490;8.736;2023-09-12T15:45:05;4.05;;;1.60;;
70953;SDS011;58618;47.490;8.736;2023-09-12T15:47:55;4.38;;;1.55;;
70953;SDS011;58618;47.490;8.736;2023-09-12T15:50:43;5.53;;;1.70;;
70953;SDS011;58618;47.490;8.736;2023-09-12T15:53:30;5.53;;;1.90;;
70953;SDS011;58618;47.490;8.736;2023-09-12T15:56:17;5.30;;;2.00;;
70953;SDS011;58618;47.490;8.736;2023-09-12T15:59:05;4.18;;;1.80;;
70953;SDS011;58618;47.490;8.736;2023-09-12T16:01:54;3.92;;;1.95;;
70953;SDS011;58618;47.490;8.736;2023-09-12T16:04:41;5.83;;;2.17;;
70953;SDS011;58618;47.490;8.736;2023-09-12T16:07:28;5.32;;;1.90;;
70953;SDS011;58618;47.490;8.736;2023-09-12T16:10:16;3.28;;;1.70;;
70953;SDS011;58618;47.490;8.736;2023-09-12T16:13:03;4.28;;;1.95;;
70953;SDS011;58618;47.490;8.736;2023-09-12T16:15:51;5.35;;;1.73;;
70953;SDS011;58618;47.490;8.736;2023-09-12T16:18:40;3.73;;;1.90;;
70953;SDS011;58618;47.490;8.736;2023-09-12T16:21:27;4.85;;;2.10;;
70953;SDS011;58618;47.490;8.736;2023-09-12T16:24:15;3.67;;;1.65;;
70953;SDS011;58618;47.490;8.736;2023-09-12T16:27:03;4.05;;;1.90;;
70953;SDS011;58618;47.490;8.736;2023-09-12T16:29:51;3.92;;;1.92;;
70953;SDS011;58618;47.490;8.736;2023-09-12T16:32:42;3.77;;;1.90;;
70953;SDS011;58618;47.490;8.736;2023-09-12T16:35:31;3.92;;;1.90;;
70953;SDS011;58618;47.490;8.736;2023-09-12T16:38:18;2.47;;;1.80;;
70953;SDS011;58618;47.490;8.736;2023-09-12T16:41:06;3.15;;;1.70;;